sensor_id;sensor_type;location;lat;lon;timestamp;temperature;humidity
15384;DHT22;7790;53.022;12.968;2023-08-20T00:02:18;25.00;73.60
15384;DHT22;7790;53.022;12.968;2023-08-20T00:06:21;25.00;73.70
15384;DHT22;7790;53.022;12.968;2023-08-20T00:10:22;25.00;74.40
15384;DHT22;7790;53.022;12.968;2023-08-20T00:14:56;25.00;74.20
15384;DHT22;7790;53.022;12.968;2023-08-20T00:18:58;25.00;74.10
15384;DHT22;7790;53.022;12.968;2023-08-20T00:22:59;25.00;74.30
15384;DHT22;7790;53.022;12.968;2023-08-20T00:27:00;25.00;74.40
15384;DHT22;7790;53.022;12.968;2023-08-20T00:31:01;25.00;74.50
15384;DHT22;7790;53.022;12.968;2023-08-20T00:35:03;25.00;74.90
15384;DHT22;7790;53.022;12.968;2023-08-20T00:39:05;25.00;75.00
15384;DHT22;7790;53.022;12.968;2023-08-20T00:43:06;25.00;74.80
15384;DHT22;7790;53.022;12.968;2023-08-20T00:47:07;25.00;74.90
15384;DHT22;7790;53.022;12.968;2023-08-20T00:51:08;25.00;75.60
15384;DHT22;7790;53.022;12.968;2023-08-20T00:55:10;25.00;75.10
15384;DHT22;7790;53.022;12.968;2023-08-20T00:59:11;25.00;74.80
15384;DHT22;7790;53.022;12.968;2023-08-20T01:03:12;25.00;75.00
15384;DHT22;7790;53.022;12.968;2023-08-20T01:11:43;25.00;75.10
15384;DHT22;7790;53.022;12.968;2023-08-20T01:15:44;25.00;75.00
15384;DHT22;7790;53.022;12.968;2023-08-20T01:19:45;25.00;74.40
15384;DHT22;7790;53.022;12.968;2023-08-20T01:24:01;25.00;75.40
15384;DHT22;7790;53.022;12.968;2023-08-20T01:32:26;25.00;74.70
15384;DHT22;7790;53.022;12.968;2023-08-20T01:36:27;25.00;74.30
15384;DHT22;7790;53.022;12.968;2023-08-20T01:40:28;25.00;75.10
15384;DHT22;7790;53.022;12.968;2023-08-20T01:44:29;25.00;74.90
15384;DHT22;7790;53.022;12.968;2023-08-20T01:48:30;25.00;75.40
15384;DHT22;7790;53.022;12.968;2023-08-20T01:52:31;25.00;74.40
15384;DHT22;7790;53.022;12.968;2023-08-20T01:56:32;25.00;74.90
15384;DHT22;7790;53.022;12.968;2023-08-20T02:00:33;25.00;74.70
15384;DHT22;7790;53.022;12.968;2023-08-20T02:04:34;25.00;74.50
15384;DHT22;7790;53.022;12.968;2023-08-20T02:08:35;25.00;75.40
15384;DHT22;7790;53.022;12.968;2023-08-20T02:12:36;25.00;74.30
15384;DHT22;7790;53.022;12.968;2023-08-20T02:16:37;24.90;75.30
15384;DHT22;7790;53.022;12.968;2023-08-20T02:20:38;24.90;74.00
15384;DHT22;7790;53.022;12.968;2023-08-20T02:24:38;24.90;75.00
15384;DHT22;7790;53.022;12.968;2023-08-20T02:28:39;24.90;73.80
15384;DHT22;7790;53.022;12.968;2023-08-20T02:32:41;24.90;74.30
15384;DHT22;7790;53.022;12.968;2023-08-20T02:36:42;24.90;73.70
15384;DHT22;7790;53.022;12.968;2023-08-20T02:40:43;24.90;74.10
15384;DHT22;7790;53.022;12.968;2023-08-20T02:44:46;24.90;73.90
15384;DHT22;7790;53.022;12.968;2023-08-20T02:48:47;24.80;74.00
15384;DHT22;7790;53.022;12.968;2023-08-20T02:52:48;24.90;74.00
15384;DHT22;7790;53.022;12.968;2023-08-20T02:56:49;24.90;73.90
15384;DHT22;7790;53.022;12.968;2023-08-20T03:00:49;24.90;73.90
15384;DHT22;7790;53.022;12.968;2023-08-20T03:04:51;24.80;73.90
15384;DHT22;7790;53.022;12.968;2023-08-20T03:08:51;24.80;73.70
15384;DHT22;7790;53.022;12.968;2023-08-20T03:12:52;24.80;73.90
15384;DHT22;7790;53.022;12.968;2023-08-20T03:16:53;24.90;74.50
15384;DHT22;7790;53.022;12.968;2023-08-20T03:20:55;24.80;73.80
15384;DHT22;7790;53.022;12.968;2023-08-20T03:24:56;24.80;74.10
15384;DHT22;7790;53.022;12.968;2023-08-20T03:28:57;24.80;74.20
15384;DHT22;7790;53.022;12.968;2023-08-20T03:32:59;24.80;73.80
15384;DHT22;7790;53.022;12.968;2023-08-20T03:37:01;24.70;73.80
15384;DHT22;7790;53.022;12.968;2023-08-20T03:41:03;24.70;74.20
15384;DHT22;7790;53.022;12.968;2023-08-20T03:45:04;24.70;73.70
15384;DHT22;7790;53.022;12.968;2023-08-20T03:49:05;24.80;74.10
15384;DHT22;7790;53.022;12.968;2023-08-20T03:53:06;24.80;73.90
15384;DHT22;7790;53.022;12.968;2023-08-20T03:57:07;24.70;73.90
15384;DHT22;7790;53.022;12.968;2023-08-20T04:01:08;24.70;74.10
15384;DHT22;7790;53.022;12.968;2023-08-20T04:05:09;24.80;74.00
15384;DHT22;7790;53.022;12.968;2023-08-20T04:09:10;24.70;73.90
15384;DHT22;7790;53.022;12.968;2023-08-20T04:13:11;24.70;74.10
15384;DHT22;7790;53.022;12.968;2023-08-20T04:17:14;24.80;74.10
15384;DHT22;7790;53.022;12.968;2023-08-20T04:21:15;24.70;74.20
15384;DHT22;7790;53.022;12.968;2023-08-20T04:25:16;24.80;74.50
15384;DHT22;7790;53.022;12.968;2023-08-20T04:29:17;24.80;74.10
15384;DHT22;7790;53.022;12.968;2023-08-20T04:33:19;24.80;74.20
15384;DHT22;7790;53.022;12.968;2023-08-20T04:37:20;24.80;74.70
15384;DHT22;7790;53.022;12.968;2023-08-20T04:41:21;24.70;74.20
15384;DHT22;7790;53.022;12.968;2023-08-20T04:45:22;24.80;74.40
15384;DHT22;7790;53.022;12.968;2023-08-20T04:49:23;24.50;79.00
15384;DHT22;7790;53.022;12.968;2023-08-20T04:53:29;24.30;81.20
15384;DHT22;7790;53.022;12.968;2023-08-20T04:57:31;24.10;82.50
15384;DHT22;7790;53.022;12.968;2023-08-20T05:01:32;24.10;82.90
15384;DHT22;7790;53.022;12.968;2023-08-20T05:05:33;24.10;82.60
15384;DHT22;7790;53.022;12.968;2023-08-20T05:09:34;24.10;82.70
15384;DHT22;7790;53.022;12.968;2023-08-20T05:13:35;24.10;82.50
15384;DHT22;7790;53.022;12.968;2023-08-20T05:17:36;24.10;82.60
15384;DHT22;7790;53.022;12.968;2023-08-20T05:21:37;24.10;83.10
15384;DHT22;7790;53.022;12.968;2023-08-20T05:25:38;24.10;83.40
15384;DHT22;7790;53.022;12.968;2023-08-20T05:29:40;24.10;83.40
15384;DHT22;7790;53.022;12.968;2023-08-20T05:33:41;24.00;83.30
15384;DHT22;7790;53.022;12.968;2023-08-20T05:37:43;24.00;83.10
15384;DHT22;7790;53.022;12.968;2023-08-20T05:41:44;24.00;83.00
15384;DHT22;7790;53.022;12.968;2023-08-20T05:45:46;24.00;83.20
15384;DHT22;7790;53.022;12.968;2023-08-20T05:49:52;23.90;83.20
15384;DHT22;7790;53.022;12.968;2023-08-20T05:53:53;23.90;83.50
15384;DHT22;7790;53.022;12.968;2023-08-20T05:57:54;23.90;83.20
15384;DHT22;7790;53.022;12.968;2023-08-20T06:01:55;23.90;83.10
15384;DHT22;7790;53.022;12.968;2023-08-20T06:05:59;23.90;83.40
15384;DHT22;7790;53.022;12.968;2023-08-20T06:10:03;23.90;83.80
15384;DHT22;7790;53.022;12.968;2023-08-20T06:14:04;23.90;83.70
15384;DHT22;7790;53.022;12.968;2023-08-20T06:18:06;23.90;83.30
15384;DHT22;7790;53.022;12.968;2023-08-20T06:22:07;23.80;83.10
15384;DHT22;7790;53.022;12.968;2023-08-20T06:26:07;23.80;83.20
15384;DHT22;7790;53.022;12.968;2023-08-20T06:30:09;23.60;84.20
15384;DHT22;7790;53.022;12.968;2023-08-20T06:34:10;23.50;85.10
15384;DHT22;7790;53.022;12.968;2023-08-20T06:38:11;23.50;84.40
15384;DHT22;7790;53.022;12.968;2023-08-20T06:42:11;23.70;84.30
15384;DHT22;7790;53.022;12.968;2023-08-20T06:46:12;23.70;84.20
15384;DHT22;7790;53.022;12.968;2023-08-20T06:50:13;23.70;84.00
15384;DHT22;7790;53.022;12.968;2023-08-20T06:54:15;23.70;83.80
15384;DHT22;7790;53.022;12.968;2023-08-20T06:58:16;23.70;83.60
15384;DHT22;7790;53.022;12.968;2023-08-20T07:02:17;23.70;83.50
15384;DHT22;7790;53.022;12.968;2023-08-20T07:06:18;23.70;83.10
15384;DHT22;7790;53.022;12.968;2023-08-20T07:10:19;23.70;83.40
15384;DHT22;7790;53.022;12.968;2023-08-20T07:14:20;23.70;82.80
15384;DHT22;7790;53.022;12.968;2023-08-20T07:18:21;23.70;80.40
15384;DHT22;7790;53.022;12.968;2023-08-20T07:22:22;23.70;80.60
15384;DHT22;7790;53.022;12.968;2023-08-20T07:26:22;23.80;79.20
15384;DHT22;7790;53.022;12.968;2023-08-20T07:30:23;23.80;79.20
15384;DHT22;7790;53.022;12.968;2023-08-20T07:34:24;23.80;77.90
15384;DHT22;7790;53.022;12.968;2023-08-20T07:38:25;23.80;77.10
15384;DHT22;7790;53.022;12.968;2023-08-20T07:42:26;23.80;76.30
15384;DHT22;7790;53.022;12.968;2023-08-20T07:46:27;23.90;74.90
15384;DHT22;7790;53.022;12.968;2023-08-20T07:50:28;23.80;71.80
15384;DHT22;7790;53.022;12.968;2023-08-20T07:54:29;23.80;70.80
15384;DHT22;7790;53.022;12.968;2023-08-20T07:58:30;23.90;69.60
15384;DHT22;7790;53.022;12.968;2023-08-20T08:02:31;23.90;70.80
15384;DHT22;7790;53.022;12.968;2023-08-20T08:06:31;24.00;69.50
15384;DHT22;7790;53.022;12.968;2023-08-20T08:10:32;24.00;68.70
15384;DHT22;7790;53.022;12.968;2023-08-20T08:14:33;24.10;68.90
15384;DHT22;7790;53.022;12.968;2023-08-20T08:18:34;24.20;65.40
15384;DHT22;7790;53.022;12.968;2023-08-20T08:22:35;24.20;63.50
15384;DHT22;7790;53.022;12.968;2023-08-20T08:26:36;24.20;66.20
15384;DHT22;7790;53.022;12.968;2023-08-20T08:30:38;24.30;66.80
15384;DHT22;7790;53.022;12.968;2023-08-20T08:34:39;24.30;67.40
15384;DHT22;7790;53.022;12.968;2023-08-20T08:38:40;24.30;67.10
15384;DHT22;7790;53.022;12.968;2023-08-20T08:42:41;24.40;67.70
15384;DHT22;7790;53.022;12.968;2023-08-20T08:46:43;24.50;68.70
15384;DHT22;7790;53.022;12.968;2023-08-20T08:50:44;24.50;69.40
15384;DHT22;7790;53.022;12.968;2023-08-20T08:54:46;24.50;69.70
15384;DHT22;7790;53.022;12.968;2023-08-20T08:58:47;24.60;70.00
15384;DHT22;7790;53.022;12.968;2023-08-20T09:02:48;24.60;69.90
15384;DHT22;7790;53.022;12.968;2023-08-20T09:06:51;24.60;69.80
15384;DHT22;7790;53.022;12.968;2023-08-20T09:10:55;24.70;69.90
15384;DHT22;7790;53.022;12.968;2023-08-20T09:14:56;24.70;69.90
15384;DHT22;7790;53.022;12.968;2023-08-20T09:19:01;24.70;70.00
15384;DHT22;7790;53.022;12.968;2023-08-20T09:23:02;24.80;70.00
15384;DHT22;7790;53.022;12.968;2023-08-20T09:27:03;24.80;70.30
15384;DHT22;7790;53.022;12.968;2023-08-20T09:31:05;24.80;70.10
15384;DHT22;7790;53.022;12.968;2023-08-20T09:35:06;24.90;70.20
15384;DHT22;7790;53.022;12.968;2023-08-20T09:39:18;24.90;70.30
15384;DHT22;7790;53.022;12.968;2023-08-20T09:43:20;24.90;70.40
15384;DHT22;7790;53.022;12.968;2023-08-20T09:47:23;25.00;70.20
15384;DHT22;7790;53.022;12.968;2023-08-20T09:51:27;25.00;70.30
15384;DHT22;7790;53.022;12.968;2023-08-20T09:55:33;25.00;70.10
15384;DHT22;7790;53.022;12.968;2023-08-20T09:59:37;25.00;70.00
15384;DHT22;7790;53.022;12.968;2023-08-20T10:03:39;25.10;70.10
15384;DHT22;7790;53.022;12.968;2023-08-20T10:07:40;25.10;69.80
15384;DHT22;7790;53.022;12.968;2023-08-20T10:11:42;25.10;69.90
15384;DHT22;7790;53.022;12.968;2023-08-20T10:15:43;25.10;70.10
15384;DHT22;7790;53.022;12.968;2023-08-20T10:19:46;25.10;69.60
15384;DHT22;7790;53.022;12.968;2023-08-20T10:23:50;25.20;69.80
15384;DHT22;7790;53.022;12.968;2023-08-20T10:27:52;25.20;69.80
15384;DHT22;7790;53.022;12.968;2023-08-20T10:31:56;25.20;69.70
15384;DHT22;7790;53.022;12.968;2023-08-20T10:35:56;25.10;70.00
15384;DHT22;7790;53.022;12.968;2023-08-20T10:39:58;25.20;69.60
15384;DHT22;7790;53.022;12.968;2023-08-20T10:43:59;25.20;69.10
15384;DHT22;7790;53.022;12.968;2023-08-20T10:48:00;25.20;69.50
15384;DHT22;7790;53.022;12.968;2023-08-20T10:52:02;25.20;69.70
15384;DHT22;7790;53.022;12.968;2023-08-20T11:00:15;25.20;69.20
15384;DHT22;7790;53.022;12.968;2023-08-20T11:04:17;25.20;69.10
15384;DHT22;7790;53.022;12.968;2023-08-20T11:08:19;25.20;69.40
15384;DHT22;7790;53.022;12.968;2023-08-20T11:12:22;25.30;69.40
15384;DHT22;7790;53.022;12.968;2023-08-20T11:16:23;25.20;69.10
15384;DHT22;7790;53.022;12.968;2023-08-20T11:20:24;25.20;69.10
15384;DHT22;7790;53.022;12.968;2023-08-20T11:24:29;25.20;68.90
15384;DHT22;7790;53.022;12.968;2023-08-20T11:28:30;25.20;68.80
15384;DHT22;7790;53.022;12.968;2023-08-20T11:32:31;25.20;68.50
15384;DHT22;7790;53.022;12.968;2023-08-20T11:36:32;25.30;68.50
15384;DHT22;7790;53.022;12.968;2023-08-20T11:40:33;25.20;68.30
15384;DHT22;7790;53.022;12.968;2023-08-20T11:44:42;25.20;68.30
15384;DHT22;7790;53.022;12.968;2023-08-20T11:49:03;25.30;68.50
15384;DHT22;7790;53.022;12.968;2023-08-20T11:53:04;25.30;68.10
15384;DHT22;7790;53.022;12.968;2023-08-20T11:57:06;25.20;68.00
15384;DHT22;7790;53.022;12.968;2023-08-20T12:01:10;25.20;68.00
15384;DHT22;7790;53.022;12.968;2023-08-20T12:05:18;25.20;68.10
15384;DHT22;7790;53.022;12.968;2023-08-20T12:09:23;25.20;68.10
15384;DHT22;7790;53.022;12.968;2023-08-20T12:13:24;25.20;68.20
15384;DHT22;7790;53.022;12.968;2023-08-20T12:17:25;25.20;67.90
15384;DHT22;7790;53.022;12.968;2023-08-20T12:21:27;25.20;67.30
15384;DHT22;7790;53.022;12.968;2023-08-20T12:25:31;25.20;67.70
15384;DHT22;7790;53.022;12.968;2023-08-20T12:29:32;25.30;67.90
15384;DHT22;7790;53.022;12.968;2023-08-20T12:33:33;25.20;66.90
15384;DHT22;7790;53.022;12.968;2023-08-20T12:37:34;25.30;67.00
15384;DHT22;7790;53.022;12.968;2023-08-20T12:41:35;25.30;65.70
15384;DHT22;7790;53.022;12.968;2023-08-20T12:45:36;25.30;65.00
15384;DHT22;7790;53.022;12.968;2023-08-20T12:49:39;25.30;64.90
15384;DHT22;7790;53.022;12.968;2023-08-20T12:53:40;25.30;65.20
15384;DHT22;7790;53.022;12.968;2023-08-20T12:57:58;25.30;64.80
15384;DHT22;7790;53.022;12.968;2023-08-20T13:01:59;25.30;63.80
15384;DHT22;7790;53.022;12.968;2023-08-20T13:06:01;25.20;64.70
15384;DHT22;7790;53.022;12.968;2023-08-20T13:10:02;25.30;64.20
15384;DHT22;7790;53.022;12.968;2023-08-20T13:14:05;25.20;62.70
15384;DHT22;7790;53.022;12.968;2023-08-20T13:18:06;25.20;64.00
15384;DHT22;7790;53.022;12.968;2023-08-20T13:22:08;25.20;63.30
15384;DHT22;7790;53.022;12.968;2023-08-20T13:26:09;25.20;62.70
15384;DHT22;7790;53.022;12.968;2023-08-20T13:30:10;25.20;64.10
15384;DHT22;7790;53.022;12.968;2023-08-20T13:34:11;25.20;62.40
15384;DHT22;7790;53.022;12.968;2023-08-20T13:38:12;25.20;64.30
15384;DHT22;7790;53.022;12.968;2023-08-20T13:42:13;25.20;63.70
15384;DHT22;7790;53.022;12.968;2023-08-20T13:46:13;25.10;63.20
15384;DHT22;7790;53.022;12.968;2023-08-20T13:50:14;25.10;63.30
15384;DHT22;7790;53.022;12.968;2023-08-20T13:54:15;25.10;64.20
15384;DHT22;7790;53.022;12.968;2023-08-20T13:58:16;25.20;64.00
15384;DHT22;7790;53.022;12.968;2023-08-20T14:02:17;25.10;63.90
15384;DHT22;7790;53.022;12.968;2023-08-20T14:06:18;25.10;64.10
15384;DHT22;7790;53.022;12.968;2023-08-20T14:10:19;25.10;64.30
15384;DHT22;7790;53.022;12.968;2023-08-20T14:14:20;25.10;64.50
15384;DHT22;7790;53.022;12.968;2023-08-20T14:18:21;25.10;64.60
15384;DHT22;7790;53.022;12.968;2023-08-20T14:22:22;25.10;64.80
15384;DHT22;7790;53.022;12.968;2023-08-20T14:26:23;25.10;64.70
15384;DHT22;7790;53.022;12.968;2023-08-20T14:30:24;25.10;64.70
15384;DHT22;7790;53.022;12.968;2023-08-20T14:34:26;25.10;64.90
15384;DHT22;7790;53.022;12.968;2023-08-20T14:38:29;25.10;64.90
15384;DHT22;7790;53.022;12.968;2023-08-20T14:42:30;25.10;65.00
15384;DHT22;7790;53.022;12.968;2023-08-20T14:46:31;25.10;65.10
15384;DHT22;7790;53.022;12.968;2023-08-20T14:50:32;25.10;65.10
15384;DHT22;7790;53.022;12.968;2023-08-20T14:54:33;25.10;65.10
15384;DHT22;7790;53.022;12.968;2023-08-20T14:58:33;25.10;65.40
15384;DHT22;7790;53.022;12.968;2023-08-20T15:02:34;25.10;65.10
15384;DHT22;7790;53.022;12.968;2023-08-20T15:06:35;25.10;65.30
15384;DHT22;7790;53.022;12.968;2023-08-20T15:10:36;25.10;65.20
15384;DHT22;7790;53.022;12.968;2023-08-20T15:14:39;25.10;65.00
15384;DHT22;7790;53.022;12.968;2023-08-20T15:18:40;25.10;65.10
15384;DHT22;7790;53.022;12.968;2023-08-20T15:22:41;25.10;65.10
15384;DHT22;7790;53.022;12.968;2023-08-20T15:26:42;25.10;65.20
15384;DHT22;7790;53.022;12.968;2023-08-20T15:30:43;25.10;65.40
15384;DHT22;7790;53.022;12.968;2023-08-20T15:34:44;25.10;65.50
15384;DHT22;7790;53.022;12.968;2023-08-20T15:38:45;25.10;66.00
15384;DHT22;7790;53.022;12.968;2023-08-20T15:42:45;25.10;64.40
15384;DHT22;7790;53.022;12.968;2023-08-20T15:46:46;24.90;65.30
15384;DHT22;7790;53.022;12.968;2023-08-20T15:50:47;24.90;65.70
15384;DHT22;7790;53.022;12.968;2023-08-20T15:54:48;24.90;65.90
15384;DHT22;7790;53.022;12.968;2023-08-20T15:58:49;24.90;64.20
15384;DHT22;7790;53.022;12.968;2023-08-20T16:02:50;25.00;62.20
15384;DHT22;7790;53.022;12.968;2023-08-20T16:06:51;25.00;60.30
15384;DHT22;7790;53.022;12.968;2023-08-20T16:10:51;25.00;59.00
15384;DHT22;7790;53.022;12.968;2023-08-20T16:14:52;25.00;58.70
15384;DHT22;7790;53.022;12.968;2023-08-20T16:18:53;25.10;57.50
15384;DHT22;7790;53.022;12.968;2023-08-20T16:22:54;25.10;57.30
15384;DHT22;7790;53.022;12.968;2023-08-20T16:26:55;25.10;56.90
15384;DHT22;7790;53.022;12.968;2023-08-20T16:30:56;25.00;56.30
15384;DHT22;7790;53.022;12.968;2023-08-20T16:34:58;25.10;55.30
15384;DHT22;7790;53.022;12.968;2023-08-20T16:38:59;25.20;54.50
15384;DHT22;7790;53.022;12.968;2023-08-20T16:43:00;25.10;54.40
15384;DHT22;7790;53.022;12.968;2023-08-20T16:47:02;25.10;54.70
15384;DHT22;7790;53.022;12.968;2023-08-20T16:51:05;25.10;54.80
15384;DHT22;7790;53.022;12.968;2023-08-20T16:55:06;25.10;54.70
15384;DHT22;7790;53.022;12.968;2023-08-20T16:59:07;25.10;53.80
15384;DHT22;7790;53.022;12.968;2023-08-20T17:03:08;25.10;53.80
15384;DHT22;7790;53.022;12.968;2023-08-20T17:07:09;25.10;53.80
15384;DHT22;7790;53.022;12.968;2023-08-20T17:11:11;25.10;53.90
15384;DHT22;7790;53.022;12.968;2023-08-20T17:15:12;25.10;53.80
15384;DHT22;7790;53.022;12.968;2023-08-20T17:19:13;25.00;54.50
15384;DHT22;7790;53.022;12.968;2023-08-20T17:23:15;24.90;54.80
15384;DHT22;7790;53.022;12.968;2023-08-20T17:27:16;24.90;55.40
15384;DHT22;7790;53.022;12.968;2023-08-20T17:31:17;24.90;55.70
15384;DHT22;7790;53.022;12.968;2023-08-20T17:35:18;24.90;56.00
15384;DHT22;7790;53.022;12.968;2023-08-20T17:39:18;24.90;56.30
15384;DHT22;7790;53.022;12.968;2023-08-20T17:43:19;24.80;56.40
15384;DHT22;7790;53.022;12.968;2023-08-20T17:47:20;24.80;56.60
15384;DHT22;7790;53.022;12.968;2023-08-20T17:51:21;24.90;57.70
15384;DHT22;7790;53.022;12.968;2023-08-20T17:55:22;25.10;57.20
15384;DHT22;7790;53.022;12.968;2023-08-20T17:59:23;25.30;53.80
15384;DHT22;7790;53.022;12.968;2023-08-20T18:03:24;25.40;52.10
15384;DHT22;7790;53.022;12.968;2023-08-20T18:07:24;25.40;52.50
15384;DHT22;7790;53.022;12.968;2023-08-20T18:11:25;25.40;52.90
15384;DHT22;7790;53.022;12.968;2023-08-20T18:15:26;25.40;52.60
15384;DHT22;7790;53.022;12.968;2023-08-20T18:19:27;25.40;53.00
15384;DHT22;7790;53.022;12.968;2023-08-20T18:23:28;25.30;53.90
15384;DHT22;7790;53.022;12.968;2023-08-20T18:27:29;25.30;54.00
15384;DHT22;7790;53.022;12.968;2023-08-20T18:31:30;25.20;54.10
15384;DHT22;7790;53.022;12.968;2023-08-20T18:35:31;25.00;54.90
15384;DHT22;7790;53.022;12.968;2023-08-20T18:39:34;25.00;55.20
15384;DHT22;7790;53.022;12.968;2023-08-20T18:43:35;24.90;55.20
15384;DHT22;7790;53.022;12.968;2023-08-20T18:47:37;24.70;55.90
15384;DHT22;7790;53.022;12.968;2023-08-20T18:51:37;24.60;56.10
15384;DHT22;7790;53.022;12.968;2023-08-20T18:55:38;24.50;56.40
15384;DHT22;7790;53.022;12.968;2023-08-20T18:59:39;24.50;56.60
15384;DHT22;7790;53.022;12.968;2023-08-20T19:03:40;24.50;57.20
15384;DHT22;7790;53.022;12.968;2023-08-20T19:07:41;24.70;57.30
15384;DHT22;7790;53.022;12.968;2023-08-20T19:11:47;24.60;57.20
15384;DHT22;7790;53.022;12.968;2023-08-20T19:15:49;24.50;57.30
15384;DHT22;7790;53.022;12.968;2023-08-20T19:19:50;24.50;57.80
15384;DHT22;7790;53.022;12.968;2023-08-20T19:23:51;24.50;57.90
15384;DHT22;7790;53.022;12.968;2023-08-20T19:27:53;24.60;57.90
15384;DHT22;7790;53.022;12.968;2023-08-20T19:31:54;24.60;57.60
15384;DHT22;7790;53.022;12.968;2023-08-20T19:35:55;24.60;57.90
15384;DHT22;7790;53.022;12.968;2023-08-20T19:39:55;24.50;58.00
15384;DHT22;7790;53.022;12.968;2023-08-20T19:43:56;24.40;57.90
15384;DHT22;7790;53.022;12.968;2023-08-20T19:47:58;24.40;58.10
15384;DHT22;7790;53.022;12.968;2023-08-20T19:51:59;24.30;58.50
15384;DHT22;7790;53.022;12.968;2023-08-20T19:56:00;24.20;58.90
15384;DHT22;7790;53.022;12.968;2023-08-20T20:00:01;24.00;59.30
15384;DHT22;7790;53.022;12.968;2023-08-20T20:04:13;24.00;59.60
15384;DHT22;7790;53.022;12.968;2023-08-20T20:08:14;23.90;59.90
15384;DHT22;7790;53.022;12.968;2023-08-20T20:12:15;23.90;60.30
15384;DHT22;7790;53.022;12.968;2023-08-20T20:16:17;23.90;59.80
15384;DHT22;7790;53.022;12.968;2023-08-20T20:20:21;23.90;59.90
15384;DHT22;7790;53.022;12.968;2023-08-20T20:24:22;23.90;59.60
15384;DHT22;7790;53.022;12.968;2023-08-20T20:28:22;23.80;59.80
15384;DHT22;7790;53.022;12.968;2023-08-20T20:32:23;23.80;60.60
15384;DHT22;7790;53.022;12.968;2023-08-20T20:36:24;23.70;60.60
15384;DHT22;7790;53.022;12.968;2023-08-20T20:40:25;23.80;60.50
15384;DHT22;7790;53.022;12.968;2023-08-20T20:44:26;23.70;60.40
15384;DHT22;7790;53.022;12.968;2023-08-20T20:48:27;23.70;60.20
15384;DHT22;7790;53.022;12.968;2023-08-20T20:52:28;23.60;60.70
15384;DHT22;7790;53.022;12.968;2023-08-20T20:56:29;23.60;61.00
15384;DHT22;7790;53.022;12.968;2023-08-20T21:00:30;23.60;61.40
15384;DHT22;7790;53.022;12.968;2023-08-20T21:04:31;23.50;61.20
15384;DHT22;7790;53.022;12.968;2023-08-20T21:08:33;23.50;61.80
15384;DHT22;7790;53.022;12.968;2023-08-20T21:12:34;23.50;61.90
15384;DHT22;7790;53.022;12.968;2023-08-20T21:16:34;23.40;61.80
15384;DHT22;7790;53.022;12.968;2023-08-20T21:20:35;23.40;61.90
15384;DHT22;7790;53.022;12.968;2023-08-20T21:24:37;23.30;62.50
15384;DHT22;7790;53.022;12.968;2023-08-20T21:28:38;23.30;62.70
15384;DHT22;7790;53.022;12.968;2023-08-20T21:32:39;23.30;62.20
15384;DHT22;7790;53.022;12.968;2023-08-20T21:36:40;23.30;62.50
15384;DHT22;7790;53.022;12.968;2023-08-20T21:40:41;23.30;62.40
15384;DHT22;7790;53.022;12.968;2023-08-20T21:44:42;23.20;62.80
15384;DHT22;7790;53.022;12.968;2023-08-20T21:48:43;23.20;62.10
15384;DHT22;7790;53.022;12.968;2023-08-20T21:52:44;23.20;62.00
15384;DHT22;7790;53.022;12.968;2023-08-20T21:56:48;23.10;62.00
15384;DHT22;7790;53.022;12.968;2023-08-20T22:00:50;23.10;62.70
15384;DHT22;7790;53.022;12.968;2023-08-20T22:05:16;23.10;62.60
15384;DHT22;7790;53.022;12.968;2023-08-20T22:09:17;23.10;62.70
15384;DHT22;7790;53.022;12.968;2023-08-20T22:13:18;23.00;62.50
15384;DHT22;7790;53.022;12.968;2023-08-20T22:17:19;23.00;63.20
15384;DHT22;7790;53.022;12.968;2023-08-20T22:21:20;23.00;63.20
15384;DHT22;7790;53.022;12.968;2023-08-20T22:25:21;22.90;63.10
15384;DHT22;7790;53.022;12.968;2023-08-20T22:29:23;22.90;63.90
15384;DHT22;7790;53.022;12.968;2023-08-20T22:33:23;22.90;63.50
15384;DHT22;7790;53.022;12.968;2023-08-20T22:37:25;22.80;63.50
15384;DHT22;7790;53.022;12.968;2023-08-20T22:41:25;22.90;63.40
15384;DHT22;7790;53.022;12.968;2023-08-20T22:45:27;22.80;63.60
15384;DHT22;7790;53.022;12.968;2023-08-20T22:49:28;22.80;64.20
15384;DHT22;7790;53.022;12.968;2023-08-20T22:53:29;22.80;63.80
15384;DHT22;7790;53.022;12.968;2023-08-20T22:57:30;22.80;63.90
15384;DHT22;7790;53.022;12.968;2023-08-20T23:01:31;22.70;63.80
15384;DHT22;7790;53.022;12.968;2023-08-20T23:05:32;22.70;63.90
15384;DHT22;7790;53.022;12.968;2023-08-20T23:09:33;22.60;64.20
15384;DHT22;7790;53.022;12.968;2023-08-20T23:13:34;22.50;63.90
15384;DHT22;7790;53.022;12.968;2023-08-20T23:17:35;22.60;65.00
15384;DHT22;7790;53.022;12.968;2023-08-20T23:21:36;22.60;64.20
15384;DHT22;7790;53.022;12.968;2023-08-20T23:25:37;22.60;64.50
15384;DHT22;7790;53.022;12.968;2023-08-20T23:29:38;22.50;64.30
15384;DHT22;7790;53.022;12.968;2023-08-20T23:33:39;22.50;63.90
15384;DHT22;7790;53.022;12.968;2023-08-20T23:37:40;22.50;63.30
15384;DHT22;7790;53.022;12.968;2023-08-20T23:41:44;22.50;63.90
15384;DHT22;7790;53.022;12.968;2023-08-20T23:45:45;22.50;63.80
15384;DHT22;7790;53.022;12.968;2023-08-20T23:49:46;22.50;64.10
15384;DHT22;7790;53.022;12.968;2023-08-20T23:53:47;22.40;63.40
15384;DHT22;7790;53.022;12.968;2023-08-20T23:57:48;22.40;64.40
